createdAt,value
2023-10-10T00:00:25.261Z,11.67
2023-10-10T00:01:28.906Z,14.30
2023-10-10T00:02:31.392Z,15.43
2023-10-10T00:03:40.772Z,16.60
2023-10-10T00:04:44.842Z,13.00
2023-10-10T00:05:46.735Z,19.53
2023-10-10T00:06:50.764Z,13.70
2023-10-10T00:07:53.464Z,9.70
2023-10-10T00:08:55.111Z,12.73
2023-10-10T00:09:57.182Z,12.97
2023-10-10T00:10:59.283Z,12.67
2023-10-10T00:12:01.076Z,11.30
2023-10-10T00:13:05.621Z,11.63
2023-10-10T00:14:07.885Z,13.23
2023-10-10T00:15:24.152Z,12.47
2023-10-10T00:16:36.059Z,13.87
2023-10-10T00:17:42.130Z,13.63
2023-10-10T00:18:46.398Z,14.03
2023-10-10T00:19:55.533Z,13.13
2023-10-10T00:21:10.482Z,11.37
2023-10-10T00:22:12.869Z,13.10
2023-10-10T00:23:17.947Z,13.37
2023-10-10T00:24:27.127Z,12.37
2023-10-10T00:25:31.621Z,11.70
2023-10-10T00:26:35.642Z,10.47
2023-10-10T00:27:37.373Z,11.73
2023-10-10T00:28:42.462Z,17.37
2023-10-10T00:29:44.251Z,13.73
2023-10-10T00:30:46.529Z,10.97
2023-10-10T00:31:56.040Z,13.57
2023-10-10T00:32:57.713Z,10.07
2023-10-10T00:33:59.464Z,20.03
2023-10-10T00:35:01.151Z,12.73
2023-10-10T00:36:04.588Z,12.37
2023-10-10T00:37:09.681Z,10.97
2023-10-10T00:38:25.455Z,12.00
2023-10-10T00:39:31.663Z,13.17
2023-10-10T00:40:39.579Z,11.20
2023-10-10T00:41:50.413Z,12.47
2023-10-10T00:42:52.037Z,13.40
2023-10-10T00:43:54.531Z,11.30
2023-10-10T00:44:56.292Z,12.93
2023-10-10T00:45:58.982Z,12.67
2023-10-10T00:47:04.224Z,19.43
2023-10-10T00:48:10.111Z,15.57
2023-10-10T00:49:15.380Z,12.77
2023-10-10T00:50:19.692Z,15.93
2023-10-10T00:51:22.381Z,15.97
2023-10-10T00:52:24.232Z,12.60
2023-10-10T00:53:28.562Z,12.67
2023-10-10T00:54:33.398Z,14.73
2023-10-10T00:55:35.537Z,11.80
2023-10-10T00:56:37.587Z,11.77
2023-10-10T00:57:39.456Z,15.73
2023-10-10T00:58:41.135Z,14.13
2023-10-10T00:59:46.958Z,11.53
2023-10-10T01:00:49.261Z,11.63
2023-10-10T01:01:51.450Z,12.33
2023-10-10T01:02:53.877Z,14.10
2023-10-10T01:03:55.900Z,20.33
2023-10-10T01:04:57.866Z,13.43
2023-10-10T01:06:05.675Z,13.23
2023-10-10T01:07:08.979Z,14.10
2023-10-10T01:08:11.067Z,17.10
2023-10-10T01:09:22.345Z,13.50
2023-10-10T01:10:24.361Z,21.37
2023-10-10T01:11:26.198Z,13.57
2023-10-10T01:12:36.384Z,15.67
2023-10-10T01:13:38.221Z,12.20
2023-10-10T01:14:39.985Z,15.50
2023-10-10T01:15:49.301Z,15.37
2023-10-10T01:16:55.820Z,16.13
2023-10-10T01:17:58.372Z,13.17
2023-10-10T01:19:00.248Z,14.07
2023-10-10T01:20:24.342Z,13.20
2023-10-10T01:21:33.941Z,15.73
2023-10-10T01:22:41.098Z,12.73
2023-10-10T01:23:46.304Z,17.70
2023-10-10T01:24:52.476Z,12.30
2023-10-10T01:25:56.712Z,15.23
2023-10-10T01:27:15.168Z,12.53
2023-10-10T01:28:28.376Z,11.57
2023-10-10T01:29:31.814Z,13.50
2023-10-10T01:30:58.262Z,13.13
2023-10-10T01:32:00.670Z,10.90
2023-10-10T01:33:03.545Z,25.00
2023-10-10T01:34:09.781Z,13.67
2023-10-10T01:35:17.489Z,10.03
2023-10-10T01:36:23.519Z,10.73
2023-10-10T01:37:29.838Z,12.13
2023-10-10T01:38:58.044Z,13.80
2023-10-10T01:40:07.973Z,12.73
2023-10-10T01:41:32.421Z,14.30
2023-10-10T01:42:38.544Z,12.87
2023-10-10T01:43:46.733Z,13.93
2023-10-10T01:44:48.854Z,13.43
2023-10-10T01:46:09.886Z,11.33
2023-10-10T01:47:21.062Z,12.33
2023-10-10T01:48:24.509Z,13.27
2023-10-10T01:49:32.338Z,15.23
2023-10-10T01:50:34.946Z,12.10
2023-10-10T01:51:38.204Z,14.07
2023-10-10T01:52:47.057Z,12.73
2023-10-10T01:53:49.274Z,14.77
2023-10-10T01:54:54.492Z,20.30
2023-10-10T01:55:57.378Z,14.67
2023-10-10T01:57:00.742Z,20.03
2023-10-10T01:58:03.429Z,15.13
2023-10-10T01:59:05.421Z,11.20
2023-10-10T02:00:21.494Z,14.50
2023-10-10T02:01:25.571Z,13.10
2023-10-10T02:02:28.599Z,13.20
2023-10-10T02:03:30.443Z,12.13
2023-10-10T02:04:36.430Z,11.37
2023-10-10T02:05:38.014Z,12.33
2023-10-10T02:06:41.733Z,16.00
2023-10-10T02:07:43.368Z,10.67
2023-10-10T02:08:45.728Z,15.00
2023-10-10T02:09:54.308Z,9.63
2023-10-10T02:10:56.926Z,15.23
2023-10-10T02:12:09.364Z,12.87
2023-10-10T02:13:12.551Z,13.30
2023-10-10T02:14:14.239Z,10.43
2023-10-10T02:15:27.596Z,12.93
2023-10-10T02:16:37.011Z,12.30
2023-10-10T02:17:52.303Z,14.33
2023-10-10T02:18:55.909Z,16.10
2023-10-10T02:20:20.143Z,15.40
2023-10-10T02:21:44.525Z,12.63
2023-10-10T02:22:52.444Z,11.23
2023-10-10T02:23:55.385Z,15.77
2023-10-10T02:25:15.880Z,15.10
2023-10-10T02:26:36.671Z,14.33
2023-10-10T02:27:55.925Z,11.13
2023-10-10T02:29:18.128Z,18.03
2023-10-10T02:30:26.155Z,14.13
2023-10-10T02:31:29.618Z,15.93
2023-10-10T02:32:31.359Z,12.90
2023-10-10T02:33:35.184Z,11.60
2023-10-10T02:34:37.748Z,12.77
2023-10-10T02:35:55.566Z,13.77
2023-10-10T02:37:14.623Z,14.80
2023-10-10T02:38:17.732Z,18.47
2023-10-10T02:39:19.502Z,12.90
2023-10-10T02:40:32.009Z,12.53
2023-10-10T02:41:39.932Z,11.70
2023-10-10T02:42:51.548Z,13.60
2023-10-10T02:44:01.886Z,17.43
2023-10-10T02:45:03.995Z,10.23
2023-10-10T02:46:06.971Z,14.53
2023-10-10T02:47:10.139Z,10.53
2023-10-10T02:48:21.376Z,13.03
2023-10-10T02:49:29.042Z,18.27
2023-10-10T02:50:42.835Z,11.80
2023-10-10T02:51:44.893Z,15.27
2023-10-10T02:52:47.071Z,14.10
2023-10-10T02:53:48.911Z,14.17
2023-10-10T02:54:55.259Z,10.17
2023-10-10T02:56:02.741Z,14.40
2023-10-10T02:57:24.845Z,13.57
2023-10-10T02:58:29.329Z,13.90
2023-10-10T02:59:39.084Z,11.23
2023-10-10T03:00:40.786Z,13.87
2023-10-10T03:01:54.495Z,11.80
2023-10-10T03:02:59.892Z,12.93
2023-10-10T03:04:04.318Z,12.00
2023-10-10T03:05:06.189Z,9.23
2023-10-10T03:06:08.609Z,10.23
2023-10-10T03:07:10.588Z,14.23
2023-10-10T03:08:15.794Z,12.10
2023-10-10T03:09:39.784Z,14.87
2023-10-10T03:10:46.500Z,10.77
2023-10-10T03:11:54.840Z,14.93
2023-10-10T03:13:06.626Z,10.37
2023-10-10T03:14:09.234Z,9.03
2023-10-10T03:15:15.981Z,15.67
2023-10-10T03:16:23.401Z,11.47
2023-10-10T03:17:44.676Z,8.70
2023-10-10T03:18:56.031Z,9.50
2023-10-10T03:20:14.314Z,13.10
2023-10-10T03:21:19.703Z,8.80
2023-10-10T03:22:41.283Z,11.00
2023-10-10T03:23:53.913Z,11.57
2023-10-10T03:25:08.718Z,10.33
2023-10-10T03:26:22.811Z,11.20
2023-10-10T03:27:43.124Z,8.43
2023-10-10T03:28:48.472Z,8.73
2023-10-10T03:29:51.269Z,9.23
2023-10-10T03:31:05.720Z,9.93
2023-10-10T03:32:25.884Z,9.30
2023-10-10T03:33:36.832Z,10.73
2023-10-10T03:34:57.108Z,12.43
2023-10-10T03:36:06.804Z,12.20
2023-10-10T03:37:21.705Z,19.33
2023-10-10T03:38:38.433Z,10.30
2023-10-10T03:39:54.901Z,7.57
2023-10-10T03:41:05.575Z,9.20
2023-10-10T03:42:25.688Z,11.43
2023-10-10T03:43:46.253Z,10.77
2023-10-10T03:45:06.660Z,11.33
2023-10-10T03:46:27.155Z,10.57
2023-10-10T03:47:47.708Z,12.23
2023-10-10T03:49:08.124Z,9.70
2023-10-10T03:50:28.805Z,8.57
2023-10-10T03:51:49.500Z,10.07
2023-10-10T03:53:09.978Z,9.73
2023-10-10T03:54:30.205Z,12.50
2023-10-10T03:55:55.279Z,12.20
2023-10-10T03:57:15.833Z,12.73
2023-10-10T03:58:36.600Z,10.93
2023-10-10T03:59:56.824Z,11.43
2023-10-10T04:01:17.103Z,13.30
2023-10-10T04:02:37.597Z,23.70
2023-10-10T04:03:58.030Z,11.53
2023-10-10T04:05:27.022Z,13.50
2023-10-10T04:06:48.492Z,13.30
2023-10-10T04:08:08.919Z,11.37
2023-10-10T04:09:29.439Z,11.00
2023-10-10T04:10:49.901Z,13.70
2023-10-10T04:12:10.312Z,14.17
2023-10-10T04:13:30.652Z,12.00
2023-10-10T04:14:51.302Z,10.40
2023-10-10T04:16:11.709Z,12.03
2023-10-10T04:17:32.243Z,10.30
2023-10-10T04:18:52.548Z,9.60
2023-10-10T04:20:13.427Z,8.20
2023-10-10T04:21:34.006Z,11.47
2023-10-10T04:22:54.377Z,11.80
2023-10-10T04:24:15.528Z,12.23
2023-10-10T04:25:36.258Z,8.20
2023-10-10T04:26:56.660Z,10.30
2023-10-10T04:28:17.336Z,15.87
2023-10-10T04:29:37.999Z,12.57
2023-10-10T04:30:58.398Z,9.63
2023-10-10T04:32:18.840Z,14.00
2023-10-10T04:33:39.468Z,13.43
2023-10-10T04:34:59.958Z,9.70
2023-10-10T04:36:20.510Z,12.30
2023-10-10T04:37:41.036Z,11.27
2023-10-10T04:39:01.123Z,13.63
2023-10-10T04:40:22.094Z,13.40
2023-10-10T04:41:42.654Z,12.40
2023-10-10T04:43:03.234Z,13.30
2023-10-10T04:44:23.837Z,13.23
2023-10-10T04:45:44.389Z,12.00
2023-10-10T04:47:05.127Z,10.73
2023-10-10T04:48:25.681Z,9.13
2023-10-10T04:49:46.321Z,14.50
2023-10-10T04:51:10.789Z,11.90
2023-10-10T04:52:31.258Z,13.80
2023-10-10T04:53:51.646Z,14.30
2023-10-10T04:55:12.127Z,12.37
2023-10-10T04:56:32.433Z,17.50
2023-10-10T04:57:52.812Z,17.97
2023-10-10T04:59:13.446Z,13.40
2023-10-10T05:00:33.910Z,16.60
2023-10-10T05:01:54.456Z,11.23
2023-10-10T05:03:15.126Z,12.27
2023-10-10T05:04:35.328Z,14.67
2023-10-10T05:05:55.819Z,20.57
2023-10-10T05:07:16.175Z,18.20
2023-10-10T05:08:36.742Z,21.83
2023-10-10T05:09:57.393Z,20.07
2023-10-10T05:11:17.861Z,15.17
2023-10-10T05:12:38.386Z,16.17
2023-10-10T05:13:58.802Z,21.20
2023-10-10T05:15:19.353Z,21.63
2023-10-10T05:16:39.987Z,15.67
2023-10-10T05:18:00.316Z,19.03
2023-10-10T05:19:21.006Z,20.00
2023-10-10T05:20:41.533Z,20.57
2023-10-10T05:22:02.006Z,21.90
2023-10-10T05:23:22.606Z,15.07
2023-10-10T05:24:27.085Z,20.20
2023-10-10T05:25:34.801Z,22.77
2023-10-10T05:26:47.235Z,18.07
2023-10-10T05:27:48.971Z,18.87
2023-10-10T05:28:50.666Z,17.77
2023-10-10T05:29:52.308Z,16.13
2023-10-10T05:30:56.707Z,14.03
2023-10-10T05:32:00.734Z,15.80
2023-10-10T05:33:02.746Z,19.57
2023-10-10T05:34:04.833Z,19.70
2023-10-10T05:35:12.452Z,14.60
2023-10-10T05:36:15.991Z,12.83
2023-10-10T05:37:17.657Z,19.17
2023-10-10T05:38:20.970Z,21.90
2023-10-10T05:39:23.880Z,21.77
2023-10-10T05:40:25.914Z,18.73
2023-10-10T05:41:29.104Z,16.87
2023-10-10T05:42:35.105Z,17.60
2023-10-10T05:43:37.406Z,23.17
2023-10-10T05:44:40.202Z,19.60
2023-10-10T05:45:46.075Z,18.23
2023-10-10T05:46:48.716Z,18.40
2023-10-10T05:47:51.149Z,16.37
2023-10-10T05:48:52.884Z,17.63
2023-10-10T05:49:55.049Z,17.80
2023-10-10T05:50:56.778Z,16.80
2023-10-10T05:51:59.685Z,18.90
2023-10-10T05:53:07.844Z,18.50
2023-10-10T05:54:12.199Z,18.60
2023-10-10T05:55:14.691Z,16.50
2023-10-10T05:56:20.171Z,16.83
2023-10-10T05:57:21.836Z,17.07
2023-10-10T05:58:23.473Z,17.47
2023-10-10T05:59:25.462Z,19.10
2023-10-10T06:00:28.469Z,19.07
2023-10-10T06:01:31.891Z,21.77
2023-10-10T06:02:33.683Z,21.23
2023-10-10T06:03:35.752Z,16.20
2023-10-10T06:04:37.993Z,13.00
2023-10-10T06:05:46.172Z,16.83
2023-10-10T06:06:48.209Z,20.07
2023-10-10T06:07:50.735Z,15.40
2023-10-10T06:09:01.211Z,23.27
2023-10-10T06:10:06.896Z,18.53
2023-10-10T06:11:08.838Z,18.50
2023-10-10T06:13:13.225Z,19.53
2023-10-10T06:14:15.273Z,18.53
2023-10-10T06:15:19.003Z,18.90
2023-10-10T06:16:21.653Z,18.83
2023-10-10T06:17:23.542Z,23.63
2023-10-10T06:18:25.340Z,24.93
2023-10-10T06:19:27.109Z,19.33
2023-10-10T06:20:28.940Z,20.13
2023-10-10T06:21:30.818Z,23.60
2023-10-10T06:22:32.675Z,23.13
2023-10-10T06:23:36.264Z,20.30
2023-10-10T06:24:39.609Z,22.40
2023-10-10T06:25:41.655Z,26.50
2023-10-10T06:26:47.297Z,20.87
2023-10-10T06:27:55.492Z,18.73
2023-10-10T06:28:58.285Z,20.83
2023-10-10T06:30:00.150Z,20.23
2023-10-10T06:31:01.878Z,23.63
2023-10-10T06:32:04.638Z,18.90
2023-10-10T06:33:16.253Z,19.57
2023-10-10T06:34:23.015Z,23.60
2023-10-10T06:35:26.838Z,23.83
2023-10-10T06:36:34.492Z,31.73
2023-10-10T06:37:36.792Z,24.80
2023-10-10T06:38:42.516Z,23.77
2023-10-10T06:39:55.718Z,22.20
2023-10-10T06:40:58.233Z,27.10
2023-10-10T06:42:00.193Z,27.40
2023-10-10T06:43:08.825Z,23.20
2023-10-10T06:44:19.241Z,24.30
2023-10-10T06:45:23.420Z,26.33
2023-10-10T06:46:25.165Z,21.93
2023-10-10T06:47:29.953Z,22.73
2023-10-10T06:48:41.989Z,23.97
2023-10-10T06:49:56.472Z,25.93
2023-10-10T06:51:01.386Z,25.50
2023-10-10T06:52:03.140Z,21.67
2023-10-10T06:53:04.968Z,20.70
2023-10-10T06:54:09.797Z,23.10
2023-10-10T06:55:22.097Z,27.20
2023-10-10T06:56:44.106Z,21.00
2023-10-10T06:57:53.360Z,18.40
2023-10-10T06:58:57.927Z,23.13
2023-10-10T06:59:59.851Z,28.53
2023-10-10T07:01:05.993Z,23.50
2023-10-10T07:02:14.967Z,21.30
2023-10-10T07:03:31.397Z,20.93
2023-10-10T07:04:36.895Z,27.23
2023-10-10T07:05:40.765Z,26.73
2023-10-10T07:06:49.616Z,27.07
2023-10-10T07:07:54.707Z,24.33
2023-10-10T07:09:15.518Z,28.83
2023-10-10T07:10:25.818Z,19.83
2023-10-10T07:11:28.099Z,24.50
2023-10-10T07:12:30.055Z,22.63
2023-10-10T07:13:31.943Z,26.47
2023-10-10T07:14:41.878Z,22.93
2023-10-10T07:15:44.069Z,20.53
2023-10-10T07:16:45.989Z,24.90
2023-10-10T07:17:50.518Z,22.90
2023-10-10T07:18:57.404Z,22.80
2023-10-10T07:20:02.581Z,20.23
2023-10-10T07:21:27.213Z,20.30
2023-10-10T07:22:36.319Z,21.27
2023-10-10T07:23:40.618Z,23.83
2023-10-10T07:24:42.880Z,22.67
2023-10-10T07:25:45.277Z,39.87
2023-10-10T07:26:59.837Z,26.30
2023-10-10T07:28:06.270Z,24.87
2023-10-10T07:29:27.362Z,22.90
2023-10-10T07:30:35.584Z,22.87
2023-10-10T07:31:41.386Z,23.57
2023-10-10T07:32:44.879Z,22.13
2023-10-10T07:33:56.607Z,26.03
2023-10-10T07:35:00.114Z,23.30
2023-10-10T07:36:01.901Z,19.87
2023-10-10T07:37:09.475Z,22.90
2023-10-10T07:38:11.112Z,23.47
2023-10-10T07:39:31.464Z,22.33
2023-10-10T07:40:38.813Z,28.07
2023-10-10T07:41:45.997Z,25.30
2023-10-10T07:42:51.615Z,25.23
2023-10-10T07:43:53.298Z,23.60
2023-10-10T07:44:58.289Z,22.10
2023-10-10T07:46:00.291Z,23.00
2023-10-10T07:47:11.316Z,20.23
2023-10-10T07:48:13.425Z,23.67
2023-10-10T07:49:17.946Z,27.10
2023-10-10T07:50:27.702Z,24.13
2023-10-10T07:51:29.756Z,21.40
2023-10-10T07:52:36.727Z,21.00
2023-10-10T07:53:43.802Z,22.60
2023-10-10T07:54:47.764Z,22.20
2023-10-10T07:55:58.415Z,20.87
2023-10-10T07:57:04.954Z,28.20
2023-10-10T07:58:07.469Z,20.40
2023-10-10T07:59:09.293Z,22.07
2023-10-10T08:00:18.238Z,22.70
2023-10-10T08:01:20.200Z,25.30
2023-10-10T08:02:30.884Z,21.77
2023-10-10T08:03:32.886Z,22.37
2023-10-10T08:04:35.400Z,28.53
2023-10-10T08:05:37.114Z,26.70
2023-10-10T08:06:39.658Z,20.60
2023-10-10T08:07:41.475Z,27.73
2023-10-10T08:08:43.199Z,20.63
2023-10-10T08:09:47.011Z,22.57
2023-10-10T08:10:50.856Z,20.67
2023-10-10T08:11:56.337Z,27.33
2023-10-10T08:12:58.774Z,20.43
2023-10-10T08:14:00.860Z,20.30
2023-10-10T08:15:20.203Z,26.37
2023-10-10T08:16:22.827Z,20.63
2023-10-10T08:17:27.260Z,24.10
2023-10-10T08:18:47.633Z,24.80
2023-10-10T08:19:52.681Z,22.13
2023-10-10T08:20:54.341Z,24.77
2023-10-10T08:21:56.091Z,23.73
2023-10-10T08:23:00.873Z,19.40
2023-10-10T08:24:03.162Z,22.53
2023-10-10T08:25:05.155Z,23.83
2023-10-10T08:26:06.882Z,21.10
2023-10-10T08:27:11.564Z,25.47
2023-10-10T08:28:13.280Z,24.43
2023-10-10T08:29:15.364Z,24.17
2023-10-10T08:30:17.534Z,21.00
2023-10-10T08:31:19.766Z,21.30
2023-10-10T08:32:21.556Z,19.70
2023-10-10T08:33:27.433Z,22.00
2023-10-10T08:34:29.185Z,22.90
2023-10-10T08:35:31.581Z,21.80
2023-10-10T08:36:33.725Z,18.37
2023-10-10T08:37:35.332Z,22.80
2023-10-10T08:38:43.167Z,19.90
2023-10-10T08:39:50.985Z,24.10
2023-10-10T08:41:07.300Z,23.30
2023-10-10T08:42:15.999Z,21.07
2023-10-10T08:43:17.896Z,20.70
2023-10-10T08:44:20.102Z,20.30
2023-10-10T08:45:25.101Z,20.63
2023-10-10T08:46:31.326Z,18.80
2023-10-10T08:47:34.840Z,20.60
2023-10-10T08:48:38.486Z,23.27
2023-10-10T08:49:40.820Z,22.93
2023-10-10T08:50:45.819Z,17.47
2023-10-10T08:51:49.509Z,20.20
2023-10-10T08:52:54.897Z,19.63
2023-10-10T08:53:56.976Z,19.90
2023-10-10T08:55:00.203Z,14.37
2023-10-10T08:56:04.169Z,20.67
2023-10-10T08:57:11.064Z,19.83
2023-10-10T08:58:12.794Z,14.57
2023-10-10T08:59:18.968Z,18.10
2023-10-10T09:00:20.858Z,16.17
2023-10-10T09:01:23.287Z,22.47
2023-10-10T09:02:25.172Z,22.07
2023-10-10T09:03:27.903Z,19.03
2023-10-10T09:04:31.898Z,18.30
2023-10-10T09:05:33.759Z,20.33
2023-10-10T09:06:57.565Z,19.50
2023-10-10T09:08:07.997Z,18.50
2023-10-10T09:09:29.903Z,20.00
2023-10-10T09:10:38.181Z,19.13
2023-10-10T09:11:42.148Z,21.20
2023-10-10T09:12:54.934Z,22.17
2023-10-10T09:13:56.616Z,17.63
2023-10-10T09:14:58.987Z,14.60
2023-10-10T09:16:01.218Z,19.53
2023-10-10T09:17:07.318Z,16.33
2023-10-10T09:18:27.832Z,15.43
2023-10-10T09:19:29.569Z,15.57
2023-10-10T09:20:32.893Z,18.37
2023-10-10T09:21:52.083Z,13.60
2023-10-10T09:22:58.369Z,13.77
2023-10-10T09:24:27.624Z,15.40
2023-10-10T09:25:47.998Z,14.07
2023-10-10T09:26:52.230Z,16.80
2023-10-10T09:28:00.744Z,13.63
2023-10-10T09:29:16.279Z,11.73
2023-10-10T09:30:21.530Z,14.37
2023-10-10T09:31:32.563Z,12.10
2023-10-10T09:32:37.835Z,13.30
2023-10-10T09:33:46.803Z,14.97
2023-10-10T09:34:50.259Z,9.40
2023-10-10T09:35:59.933Z,12.70
2023-10-10T09:37:06.402Z,9.50
2023-10-10T09:38:13.696Z,14.50
2023-10-10T09:39:36.322Z,10.50
2023-10-10T09:40:40.737Z,14.60
2023-10-10T09:41:59.373Z,11.43
2023-10-10T09:43:06.187Z,11.93
2023-10-10T09:44:23.520Z,11.00
2023-10-10T09:45:48.260Z,9.80
2023-10-10T09:47:16.116Z,13.73
2023-10-10T09:48:29.474Z,12.27
2023-10-10T09:49:44.049Z,10.50
2023-10-10T09:51:06.931Z,11.83
2023-10-10T09:52:34.320Z,9.23
2023-10-10T09:53:37.275Z,9.87
2023-10-10T09:54:40.416Z,12.40
2023-10-10T09:55:44.038Z,11.93
2023-10-10T09:56:51.751Z,10.60
2023-10-10T09:58:06.999Z,10.17
2023-10-10T09:59:09.326Z,12.33
2023-10-10T10:00:26.628Z,13.70
2023-10-10T10:01:29.362Z,11.50
2023-10-10T10:02:50.944Z,10.67
2023-10-10T10:03:57.569Z,10.10
2023-10-10T10:05:00.305Z,11.13
2023-10-10T10:06:36.157Z,9.10
2023-10-10T10:08:23.334Z,13.27
2023-10-10T10:09:55.686Z,9.10
2023-10-10T10:11:27.133Z,9.17
2023-10-10T10:12:54.610Z,17.70
2023-10-10T10:14:16.406Z,13.43
2023-10-10T10:15:54.798Z,12.97
2023-10-10T10:17:17.199Z,13.20
2023-10-10T10:18:28.845Z,14.33
2023-10-10T10:19:34.728Z,11.87
2023-10-10T10:20:47.824Z,10.80
2023-10-10T10:21:55.014Z,9.90
2023-10-10T10:23:01.215Z,11.67
2023-10-10T10:24:28.781Z,11.97
2023-10-10T10:25:35.471Z,10.20
2023-10-10T10:26:45.614Z,13.90
2023-10-10T10:27:50.766Z,16.00
2023-10-10T10:28:58.279Z,13.53
2023-10-10T10:30:30.511Z,12.60
2023-10-10T10:31:40.879Z,11.50
2023-10-10T10:32:45.761Z,12.80
2023-10-10T10:34:09.152Z,14.40
2023-10-10T10:35:14.364Z,11.57
2023-10-10T10:36:16.482Z,11.33
2023-10-10T10:37:24.488Z,10.67
2023-10-10T10:38:26.819Z,11.97
2023-10-10T10:39:36.292Z,15.63
2023-10-10T10:40:40.761Z,17.13
2023-10-10T10:41:43.778Z,11.57
2023-10-10T10:42:53.040Z,13.70
2023-10-10T10:43:54.727Z,10.43
2023-10-10T10:44:59.991Z,11.50
2023-10-10T10:46:16.379Z,9.60
2023-10-10T10:47:37.188Z,11.50
2023-10-10T10:48:55.546Z,9.17
2023-10-10T10:49:57.188Z,10.17
2023-10-10T10:51:24.496Z,11.47
2023-10-10T10:52:45.788Z,9.00
2023-10-10T10:53:51.920Z,10.67
2023-10-10T10:55:17.263Z,8.70
2023-10-10T10:56:19.474Z,11.13
2023-10-10T10:57:43.543Z,12.17
2023-10-10T10:58:55.036Z,11.20
2023-10-10T10:59:56.907Z,8.77
2023-10-10T11:01:08.646Z,8.17
2023-10-10T11:02:17.266Z,10.97
2023-10-10T11:03:19.548Z,9.30
2023-10-10T11:04:34.697Z,9.07
2023-10-10T11:05:38.886Z,9.07
2023-10-10T11:06:53.143Z,14.63
2023-10-10T11:08:07.677Z,11.33
2023-10-10T11:09:24.635Z,10.23
2023-10-10T11:10:38.237Z,13.30
2023-10-10T11:11:41.510Z,14.37
2023-10-10T11:12:43.402Z,9.07
2023-10-10T11:13:45.051Z,7.03
2023-10-10T11:14:47.427Z,12.03
2023-10-10T11:15:49.946Z,7.40
2023-10-10T11:17:00.443Z,8.10
2023-10-10T11:18:09.160Z,9.57
2023-10-10T11:19:23.550Z,12.77
2023-10-10T11:20:30.370Z,7.67
2023-10-10T11:21:32.662Z,10.00
2023-10-10T11:22:40.224Z,11.63
2023-10-10T11:23:43.086Z,9.30
2023-10-10T11:24:48.568Z,8.47
2023-10-10T11:26:01.421Z,8.83
2023-10-10T11:27:11.994Z,5.80
2023-10-10T11:28:23.666Z,11.03
2023-10-10T11:29:29.612Z,7.57
2023-10-10T11:30:34.928Z,12.63
2023-10-10T11:31:37.099Z,7.60
2023-10-10T11:32:47.283Z,7.97
2023-10-10T11:33:50.267Z,7.17
2023-10-10T11:34:57.127Z,7.80
2023-10-10T11:36:40.836Z,6.73
2023-10-10T11:38:01.409Z,8.03
2023-10-10T11:39:16.858Z,8.07
2023-10-10T11:40:29.069Z,13.33
2023-10-10T11:41:31.530Z,8.30
2023-10-10T11:42:35.042Z,8.43
2023-10-10T11:43:58.164Z,5.93
2023-10-10T11:45:07.743Z,10.03
2023-10-10T11:46:09.514Z,9.10
2023-10-10T11:47:25.600Z,9.00
2023-10-10T11:48:30.116Z,6.80
2023-10-10T11:49:33.305Z,8.17
2023-10-10T11:50:47.817Z,10.97
2023-10-10T11:51:49.694Z,8.60
2023-10-10T11:52:53.831Z,8.13
2023-10-10T11:53:55.780Z,8.80
2023-10-10T11:55:01.354Z,6.57
2023-10-10T11:56:05.711Z,10.10
2023-10-10T11:57:07.362Z,8.73
2023-10-10T11:58:09.616Z,8.73
2023-10-10T11:59:11.569Z,7.97
2023-10-10T12:00:27.106Z,10.27
2023-10-10T12:01:48.169Z,7.63
2023-10-10T12:02:50.877Z,8.20
2023-10-10T12:04:06.145Z,7.27
2023-10-10T12:05:31.352Z,6.87
2023-10-10T12:06:33.027Z,6.77
2023-10-10T12:07:41.395Z,9.80
2023-10-10T12:08:48.470Z,5.87
2023-10-10T12:09:53.021Z,8.27
2023-10-10T12:11:07.916Z,7.00
2023-10-10T12:12:10.920Z,7.57
2023-10-10T12:13:20.642Z,8.23
2023-10-10T12:14:25.115Z,5.60
2023-10-10T12:15:26.749Z,5.23
2023-10-10T12:16:29.043Z,5.30
2023-10-10T12:17:30.876Z,7.57
2023-10-10T12:18:33.290Z,9.40
2023-10-10T12:19:38.760Z,5.67
2023-10-10T12:20:45.150Z,4.80
2023-10-10T12:21:46.998Z,11.03
2023-10-10T12:22:49.821Z,8.73
2023-10-10T12:24:00.497Z,6.37
2023-10-10T12:25:05.733Z,9.73
2023-10-10T12:26:09.778Z,4.10
2023-10-10T12:27:11.918Z,6.50
2023-10-10T12:28:19.253Z,8.60
2023-10-10T12:30:26.254Z,3.77
2023-10-10T12:31:28.427Z,7.80
2023-10-10T12:32:35.526Z,6.73
2023-10-10T12:33:37.405Z,6.40
2023-10-10T12:34:39.176Z,4.40
2023-10-10T12:35:44.971Z,5.60
2023-10-10T12:36:46.777Z,5.33
2023-10-10T12:37:48.419Z,10.83
2023-10-10T12:38:50.260Z,7.73
2023-10-10T12:39:53.577Z,4.57
2023-10-10T12:40:55.800Z,3.57
2023-10-10T12:41:58.342Z,5.53
2023-10-10T12:43:02.374Z,6.40
2023-10-10T12:44:07.348Z,4.90
2023-10-10T12:45:09.528Z,4.20
2023-10-10T12:46:12.799Z,9.40
2023-10-10T12:47:18.573Z,6.10
2023-10-10T12:48:23.098Z,5.80
2023-10-10T12:49:31.079Z,4.20
2023-10-10T12:50:34.118Z,3.77
2023-10-10T12:51:35.854Z,5.27
2023-10-10T12:52:46.279Z,4.50
2023-10-10T12:53:48.076Z,3.53
2023-10-10T12:54:59.294Z,3.43
2023-10-10T12:56:04.558Z,3.17
2023-10-10T12:57:07.271Z,4.03
2023-10-10T12:58:16.449Z,2.70
2023-10-10T12:59:27.309Z,8.30
2023-10-10T13:00:34.757Z,6.83
2023-10-10T13:01:37.031Z,10.57
2023-10-10T13:02:38.897Z,5.20
2023-10-10T13:03:40.901Z,4.03
2023-10-10T13:04:47.788Z,5.13
2023-10-10T13:05:52.086Z,2.60
2023-10-10T13:06:53.776Z,5.60
2023-10-10T13:08:00.296Z,6.03
2023-10-10T13:09:06.097Z,3.17
2023-10-10T13:10:11.575Z,9.07
2023-10-10T13:11:16.039Z,4.73
2023-10-10T13:12:29.248Z,4.60
2023-10-10T13:13:46.220Z,3.50
2023-10-10T13:14:54.701Z,3.63
2023-10-10T13:16:09.043Z,18.00
2023-10-10T13:17:30.704Z,5.83
2023-10-10T13:18:32.898Z,9.20
2023-10-10T13:19:36.204Z,4.33
2023-10-10T13:20:39.650Z,5.60
2023-10-10T13:21:43.508Z,3.47
2023-10-10T13:22:48.126Z,6.37
2023-10-10T13:23:51.488Z,5.40
2023-10-10T13:24:53.179Z,5.30
2023-10-10T13:25:55.623Z,3.67
2023-10-10T13:26:57.611Z,3.70
2023-10-10T13:27:59.247Z,3.30
2023-10-10T13:29:02.993Z,5.23
2023-10-10T13:30:05.314Z,3.10
2023-10-10T13:31:07.054Z,4.30
2023-10-10T13:32:08.788Z,6.30
2023-10-10T13:33:10.643Z,4.57
2023-10-10T13:34:12.832Z,3.67
2023-10-10T13:35:15.096Z,2.70
2023-10-10T13:36:17.204Z,3.30
2023-10-10T13:37:20.046Z,3.50
2023-10-10T13:38:21.770Z,6.70
2023-10-10T13:39:34.577Z,13.40
2023-10-10T13:40:41.363Z,6.43
2023-10-10T13:41:43.102Z,3.70
2023-10-10T13:42:44.804Z,4.97
2023-10-10T13:43:50.075Z,3.37
2023-10-10T13:44:52.499Z,5.23
2023-10-10T13:45:58.358Z,4.80
2023-10-10T13:47:01.167Z,4.73
2023-10-10T13:48:04.424Z,4.77
2023-10-10T13:49:09.915Z,5.50
2023-10-10T13:50:32.317Z,4.70
2023-10-10T13:51:40.799Z,5.33
2023-10-10T13:52:42.762Z,3.13
2023-10-10T13:53:46.281Z,5.40
2023-10-10T13:54:48.035Z,4.00
2023-10-10T13:55:49.884Z,6.00
2023-10-10T13:56:51.707Z,4.03
2023-10-10T13:57:54.748Z,6.73
2023-10-10T13:58:58.756Z,5.97
2023-10-10T14:00:00.750Z,3.23
2023-10-10T14:01:14.573Z,3.57
2023-10-10T14:02:18.172Z,5.37
2023-10-10T14:03:29.862Z,9.00
2023-10-10T14:04:46.862Z,3.20
2023-10-10T14:06:11.286Z,6.27
2023-10-10T14:07:15.556Z,4.77
2023-10-10T14:08:18.986Z,3.60
2023-10-10T14:09:26.271Z,8.03
2023-10-10T14:10:28.378Z,3.80
2023-10-10T14:11:33.595Z,3.23
2023-10-10T14:12:35.355Z,4.80
2023-10-10T14:13:37.077Z,5.87
2023-10-10T14:14:38.701Z,4.63
2023-10-10T14:15:44.884Z,7.27
2023-10-10T14:16:46.694Z,3.47
2023-10-10T14:17:48.421Z,7.53
2023-10-10T14:18:51.418Z,4.47
2023-10-10T14:19:53.667Z,3.53
2023-10-10T14:20:56.103Z,6.70
2023-10-10T14:21:57.750Z,5.70
2023-10-10T14:22:59.608Z,5.77
2023-10-10T14:24:06.253Z,5.97
2023-10-10T14:25:13.345Z,8.40
2023-10-10T14:26:15.255Z,5.57
2023-10-10T14:27:18.656Z,5.40
2023-10-10T14:28:20.611Z,5.87
2023-10-10T14:29:23.330Z,3.83
2023-10-10T14:30:25.433Z,4.53
2023-10-10T14:31:32.610Z,5.90
2023-10-10T14:32:39.214Z,5.77
2023-10-10T14:33:41.760Z,7.30
2023-10-10T14:34:45.199Z,3.40
2023-10-10T14:35:47.164Z,4.73
2023-10-10T14:36:52.374Z,6.30
2023-10-10T14:38:01.828Z,12.70
2023-10-10T14:39:04.040Z,4.27
2023-10-10T14:40:10.767Z,8.63
2023-10-10T14:41:31.718Z,4.30
2023-10-10T14:42:33.519Z,2.37
2023-10-10T14:43:35.668Z,3.93
2023-10-10T14:44:41.709Z,6.70
2023-10-10T14:45:44.277Z,2.80
2023-10-10T14:46:45.930Z,3.10
2023-10-10T14:47:47.683Z,2.33
2023-10-10T14:48:50.355Z,3.83
2023-10-10T14:49:57.186Z,5.37
2023-10-10T14:51:00.033Z,6.40